sensor_id;sensor_type;location;lat;lon;timestamp;temperature;humidity
70826;SHT31;58446;41.490;22.098;2022-08-25T00:01:20;22.04;79.04
70826;SHT31;58446;41.490;22.098;2022-08-25T00:03:47;22.24;78.07
70826;SHT31;58446;41.490;22.098;2022-08-25T00:06:13;22.53;77.05
70826;SHT31;58446;41.490;22.098;2022-08-25T00:08:40;22.37;78.03
70826;SHT31;58446;41.490;22.098;2022-08-25T00:11:08;22.22;78.24
70826;SHT31;58446;41.490;22.098;2022-08-25T00:13:37;22.34;77.72
70826;SHT31;58446;41.490;22.098;2022-08-25T00:16:03;22.62;76.39
70826;SHT31;58446;41.490;22.098;2022-08-25T00:18:29;22.77;75.86
70826;SHT31;58446;41.490;22.098;2022-08-25T00:20:55;22.85;76.17
70826;SHT31;58446;41.490;22.098;2022-08-25T00:23:21;22.97;75.87
70826;SHT31;58446;41.490;22.098;2022-08-25T00:25:47;23.11;74.76
70826;SHT31;58446;41.490;22.098;2022-08-25T00:28:13;22.97;75.90
70826;SHT31;58446;41.490;22.098;2022-08-25T00:30:41;22.80;76.37
70826;SHT31;58446;41.490;22.098;2022-08-25T00:33:07;22.38;77.87
70826;SHT31;58446;41.490;22.098;2022-08-25T00:35:33;22.76;76.13
70826;SHT31;58446;41.490;22.098;2022-08-25T00:38:00;22.97;75.30
70826;SHT31;58446;41.490;22.098;2022-08-25T00:40:27;23.03;75.21
70826;SHT31;58446;41.490;22.098;2022-08-25T00:42:54;23.16;74.66
70826;SHT31;58446;41.490;22.098;2022-08-25T00:45:20;23.36;73.95
70826;SHT31;58446;41.490;22.098;2022-08-25T00:47:46;22.97;76.30
70826;SHT31;58446;41.490;22.098;2022-08-25T00:50:12;23.06;75.12
70826;SHT31;58446;41.490;22.098;2022-08-25T00:52:44;23.17;75.13
70826;SHT31;58446;41.490;22.098;2022-08-25T00:55:33;23.02;75.33
70826;SHT31;58446;41.490;22.098;2022-08-25T00:58:08;22.51;77.97
70826;SHT31;58446;41.490;22.098;2022-08-25T01:00:41;22.35;78.55
70826;SHT31;58446;41.490;22.098;2022-08-25T01:03:08;22.21;78.97
70826;SHT31;58446;41.490;22.098;2022-08-25T01:05:34;22.24;78.83
70826;SHT31;58446;41.490;22.098;2022-08-25T01:08:01;21.94;79.93
70826;SHT31;58446;41.490;22.098;2022-08-25T01:10:28;21.93;79.61
70826;SHT31;58446;41.490;22.098;2022-08-25T01:12:59;22.47;77.31
70826;SHT31;58446;41.490;22.098;2022-08-25T01:15:26;22.83;75.85
70826;SHT31;58446;41.490;22.098;2022-08-25T01:17:54;23.10;74.98
70826;SHT31;58446;41.490;22.098;2022-08-25T01:20:23;23.14;74.95
70826;SHT31;58446;41.490;22.098;2022-08-25T01:22:50;22.70;75.92
70826;SHT31;58446;41.490;22.098;2022-08-25T01:26:00;22.32;77.28
70826;SHT31;58446;41.490;22.098;2022-08-25T01:28:28;22.59;76.54
70826;SHT31;58446;41.490;22.098;2022-08-25T01:30:53;22.76;75.72
70826;SHT31;58446;41.490;22.098;2022-08-25T01:33:19;22.45;76.62
70826;SHT31;58446;41.490;22.098;2022-08-25T01:35:46;22.39;76.82
70826;SHT31;58446;41.490;22.098;2022-08-25T01:38:12;22.69;75.95
70826;SHT31;58446;41.490;22.098;2022-08-25T01:40:40;23.06;74.61
70826;SHT31;58446;41.490;22.098;2022-08-25T01:45:37;23.30;73.63
70826;SHT31;58446;41.490;22.098;2022-08-25T01:48:05;23.13;75.00
70826;SHT31;58446;41.490;22.098;2022-08-25T01:50:31;22.95;75.66
70826;SHT31;58446;41.490;22.098;2022-08-25T01:55:44;22.82;75.40
70826;SHT31;58446;41.490;22.098;2022-08-25T01:58:21;23.02;74.60
70826;SHT31;58446;41.490;22.098;2022-08-25T02:00:48;23.17;73.98
70826;SHT31;58446;41.490;22.098;2022-08-25T02:03:15;23.26;73.80
70826;SHT31;58446;41.490;22.098;2022-08-25T02:05:42;23.17;74.01
70826;SHT31;58446;41.490;22.098;2022-08-25T02:08:08;23.14;74.54
70826;SHT31;58446;41.490;22.098;2022-08-25T02:10:36;23.04;75.10
70826;SHT31;58446;41.490;22.098;2022-08-25T02:13:02;22.80;75.93
70826;SHT31;58446;41.490;22.098;2022-08-25T02:15:28;22.88;75.97
70826;SHT31;58446;41.490;22.098;2022-08-25T02:17:55;23.04;74.68
70826;SHT31;58446;41.490;22.098;2022-08-25T02:20:21;22.92;75.14
70826;SHT31;58446;41.490;22.098;2022-08-25T02:22:49;22.95;74.99
70826;SHT31;58446;41.490;22.098;2022-08-25T02:25:16;23.02;74.98
70826;SHT31;58446;41.490;22.098;2022-08-25T02:27:43;23.14;74.38
70826;SHT31;58446;41.490;22.098;2022-08-25T02:30:10;23.09;75.02
70826;SHT31;58446;41.490;22.098;2022-08-25T02:32:38;23.06;75.70
70826;SHT31;58446;41.490;22.098;2022-08-25T02:35:05;23.04;75.54
70826;SHT31;58446;41.490;22.098;2022-08-25T02:37:32;23.09;74.86
70826;SHT31;58446;41.490;22.098;2022-08-25T02:39:58;23.20;74.42
70826;SHT31;58446;41.490;22.098;2022-08-25T02:42:24;23.27;74.15
70826;SHT31;58446;41.490;22.098;2022-08-25T02:44:51;23.17;74.65
70826;SHT31;58446;41.490;22.098;2022-08-25T02:47:16;23.09;75.08
70826;SHT31;58446;41.490;22.098;2022-08-25T02:49:42;23.04;75.53
70826;SHT31;58446;41.490;22.098;2022-08-25T02:52:08;23.10;74.90
70826;SHT31;58446;41.490;22.098;2022-08-25T02:54:35;23.27;74.43
70826;SHT31;58446;41.490;22.098;2022-08-25T02:57:01;23.30;74.17
70826;SHT31;58446;41.490;22.098;2022-08-25T02:59:27;23.10;75.00
70826;SHT31;58446;41.490;22.098;2022-08-25T03:01:53;23.17;74.69
70826;SHT31;58446;41.490;22.098;2022-08-25T03:04:18;23.27;74.20
70826;SHT31;58446;41.490;22.098;2022-08-25T03:06:45;23.37;73.90
70826;SHT31;58446;41.490;22.098;2022-08-25T03:09:11;23.36;73.85
70826;SHT31;58446;41.490;22.098;2022-08-25T03:11:37;23.37;73.81
70826;SHT31;58446;41.490;22.098;2022-08-25T03:14:04;23.14;75.04
70826;SHT31;58446;41.490;22.098;2022-08-25T03:16:30;23.14;74.70
70826;SHT31;58446;41.490;22.098;2022-08-25T03:18:56;23.10;75.06
70826;SHT31;58446;41.490;22.098;2022-08-25T03:21:22;23.11;74.82
70826;SHT31;58446;41.490;22.098;2022-08-25T03:23:49;23.21;74.33
70826;SHT31;58446;41.490;22.098;2022-08-25T03:26:14;23.14;74.46
70826;SHT31;58446;41.490;22.098;2022-08-25T03:28:59;23.27;74.10
70826;SHT31;58446;41.490;22.098;2022-08-25T03:31:29;23.17;74.52
70826;SHT31;58446;41.490;22.098;2022-08-25T03:33:56;23.28;73.97
70826;SHT31;58446;41.490;22.098;2022-08-25T03:36:22;23.33;73.76
70826;SHT31;58446;41.490;22.098;2022-08-25T03:38:48;23.34;73.73
70826;SHT31;58446;41.490;22.098;2022-08-25T03:41:22;23.14;74.86
70826;SHT31;58446;41.490;22.098;2022-08-25T03:43:48;23.20;74.10
70826;SHT31;58446;41.490;22.098;2022-08-25T03:46:23;23.24;73.84
70826;SHT31;58446;41.490;22.098;2022-08-25T03:48:49;23.28;73.57
70826;SHT31;58446;41.490;22.098;2022-08-25T03:53:45;23.11;74.46
70826;SHT31;58446;41.490;22.098;2022-08-25T03:56:11;23.16;74.11
70826;SHT31;58446;41.490;22.098;2022-08-25T03:58:37;23.13;74.21
70826;SHT31;58446;41.490;22.098;2022-08-25T04:01:03;22.77;76.08
70826;SHT31;58446;41.490;22.098;2022-08-25T04:03:28;22.90;75.21
70826;SHT31;58446;41.490;22.098;2022-08-25T04:05:54;22.79;75.54
70826;SHT31;58446;41.490;22.098;2022-08-25T04:08:20;22.49;77.17
70826;SHT31;58446;41.490;22.098;2022-08-25T04:10:46;22.22;78.52
70826;SHT31;58446;41.490;22.098;2022-08-25T04:13:12;21.96;80.34
70826;SHT31;58446;41.490;22.098;2022-08-25T04:15:41;22.00;79.28
70826;SHT31;58446;41.490;22.098;2022-08-25T04:18:08;22.19;78.16
70826;SHT31;58446;41.490;22.098;2022-08-25T04:20:36;22.48;77.06
70826;SHT31;58446;41.490;22.098;2022-08-25T04:23:02;22.56;76.69
70826;SHT31;58446;41.490;22.098;2022-08-25T04:25:28;22.80;75.86
70826;SHT31;58446;41.490;22.098;2022-08-25T04:27:54;22.85;75.88
70826;SHT31;58446;41.490;22.098;2022-08-25T04:30:20;22.96;75.51
70826;SHT31;58446;41.490;22.098;2022-08-25T04:32:46;22.97;75.48
70826;SHT31;58446;41.490;22.098;2022-08-25T04:35:14;22.96;75.63
70826;SHT31;58446;41.490;22.098;2022-08-25T04:37:40;22.82;76.70
70826;SHT31;58446;41.490;22.098;2022-08-25T04:40:06;22.85;76.15
70826;SHT31;58446;41.490;22.098;2022-08-25T04:42:32;22.77;76.87
70826;SHT31;58446;41.490;22.098;2022-08-25T04:44:59;22.75;76.87
70826;SHT31;58446;41.490;22.098;2022-08-25T04:47:27;22.72;77.13
70826;SHT31;58446;41.490;22.098;2022-08-25T04:49:53;22.72;77.35
70826;SHT31;58446;41.490;22.098;2022-08-25T04:52:19;22.88;76.10
70826;SHT31;58446;41.490;22.098;2022-08-25T04:54:45;22.93;76.23
70826;SHT31;58446;41.490;22.098;2022-08-25T04:57:11;22.82;76.77
70826;SHT31;58446;41.490;22.098;2022-08-25T04:59:37;22.76;76.61
70826;SHT31;58446;41.490;22.098;2022-08-25T05:02:03;22.76;76.47
70826;SHT31;58446;41.490;22.098;2022-08-25T05:04:32;22.75;76.45
70826;SHT31;58446;41.490;22.098;2022-08-25T05:06:59;22.82;76.15
70826;SHT31;58446;41.490;22.098;2022-08-25T05:09:25;22.88;75.97
70826;SHT31;58446;41.490;22.098;2022-08-25T05:11:51;22.82;76.06
70826;SHT31;58446;41.490;22.098;2022-08-25T05:14:17;22.88;75.76
70826;SHT31;58446;41.490;22.098;2022-08-25T05:16:46;22.68;76.66
70826;SHT31;58446;41.490;22.098;2022-08-25T05:19:12;22.27;77.97
70826;SHT31;58446;41.490;22.098;2022-08-25T05:21:37;22.68;76.37
70826;SHT31;58446;41.490;22.098;2022-08-25T05:24:03;22.72;76.68
70826;SHT31;58446;41.490;22.098;2022-08-25T05:26:31;22.47;77.33
70826;SHT31;58446;41.490;22.098;2022-08-25T05:28:59;22.59;76.83
70826;SHT31;58446;41.490;22.098;2022-08-25T05:31:26;22.70;76.31
70826;SHT31;58446;41.490;22.098;2022-08-25T05:33:53;22.79;76.23
70826;SHT31;58446;41.490;22.098;2022-08-25T05:36:20;22.83;76.47
70826;SHT31;58446;41.490;22.098;2022-08-25T05:38:47;22.83;76.19
70826;SHT31;58446;41.490;22.098;2022-08-25T05:41:17;22.86;76.28
70826;SHT31;58446;41.490;22.098;2022-08-25T05:43:44;22.90;75.99
70826;SHT31;58446;41.490;22.098;2022-08-25T05:46:13;22.97;75.94
70826;SHT31;58446;41.490;22.098;2022-08-25T05:48:40;23.04;76.85
70826;SHT31;58446;41.490;22.098;2022-08-25T05:51:08;22.93;77.53
70826;SHT31;58446;41.490;22.098;2022-08-25T05:53:35;23.03;76.11
70826;SHT31;58446;41.490;22.098;2022-08-25T05:56:02;23.04;76.41
70826;SHT31;58446;41.490;22.098;2022-08-25T05:58:29;23.13;76.07
70826;SHT31;58446;41.490;22.098;2022-08-25T06:00:56;23.14;75.89
70826;SHT31;58446;41.490;22.098;2022-08-25T06:03:22;23.21;75.68
70826;SHT31;58446;41.490;22.098;2022-08-25T06:05:48;23.23;75.47
70826;SHT31;58446;41.490;22.098;2022-08-25T06:08:14;23.30;75.67
70826;SHT31;58446;41.490;22.098;2022-08-25T06:10:40;23.46;75.14
70826;SHT31;58446;41.490;22.098;2022-08-25T06:13:06;23.55;75.15
70826;SHT31;58446;41.490;22.098;2022-08-25T06:15:32;23.54;75.89
70826;SHT31;58446;41.490;22.098;2022-08-25T06:17:58;23.57;75.46
70826;SHT31;58446;41.490;22.098;2022-08-25T06:20:28;23.59;74.29
70826;SHT31;58446;41.490;22.098;2022-08-25T06:22:55;23.64;74.00
70826;SHT31;58446;41.490;22.098;2022-08-25T06:25:23;23.37;74.82
70826;SHT31;58446;41.490;22.098;2022-08-25T06:27:49;23.33;76.10
70826;SHT31;58446;41.490;22.098;2022-08-25T06:30:18;23.07;75.90
70826;SHT31;58446;41.490;22.098;2022-08-25T06:32:44;22.97;75.89
70826;SHT31;58446;41.490;22.098;2022-08-25T06:35:16;22.66;76.68
70826;SHT31;58446;41.490;22.098;2022-08-25T06:37:42;22.97;75.97
70826;SHT31;58446;41.490;22.098;2022-08-25T06:40:09;22.92;76.04
70826;SHT31;58446;41.490;22.098;2022-08-25T06:42:36;23.07;75.48
70826;SHT31;58446;41.490;22.098;2022-08-25T06:45:03;23.16;75.81
70826;SHT31;58446;41.490;22.098;2022-08-25T06:47:29;23.03;77.60
70826;SHT31;58446;41.490;22.098;2022-08-25T06:49:54;23.11;75.88
70826;SHT31;58446;41.490;22.098;2022-08-25T06:52:20;22.77;77.88
70826;SHT31;58446;41.490;22.098;2022-08-25T06:54:47;23.06;76.21
70826;SHT31;58446;41.490;22.098;2022-08-25T06:57:13;23.34;74.89
70826;SHT31;58446;41.490;22.098;2022-08-25T06:59:39;23.62;73.98
70826;SHT31;58446;41.490;22.098;2022-08-25T07:02:05;23.64;74.89
70826;SHT31;58446;41.490;22.098;2022-08-25T07:04:32;23.68;73.96
70826;SHT31;58446;41.490;22.098;2022-08-25T07:06:58;23.44;77.16
70826;SHT31;58446;41.490;22.098;2022-08-25T07:09:24;23.74;73.44
70826;SHT31;58446;41.490;22.098;2022-08-25T07:11:50;23.85;74.85
70826;SHT31;58446;41.490;22.098;2022-08-25T07:14:19;23.72;75.31
70826;SHT31;58446;41.490;22.098;2022-08-25T07:16:45;23.77;74.37
70826;SHT31;58446;41.490;22.098;2022-08-25T07:19:12;23.68;75.13
70826;SHT31;58446;41.490;22.098;2022-08-25T07:21:39;23.90;74.38
70826;SHT31;58446;41.490;22.098;2022-08-25T07:24:08;24.04;74.06
70826;SHT31;58446;41.490;22.098;2022-08-25T07:26:35;24.23;72.65
70826;SHT31;58446;41.490;22.098;2022-08-25T07:29:05;24.32;72.85
70826;SHT31;58446;41.490;22.098;2022-08-25T07:31:31;24.37;73.06
70826;SHT31;58446;41.490;22.098;2022-08-25T07:33:57;24.44;73.38
70826;SHT31;58446;41.490;22.098;2022-08-25T07:36:41;24.44;73.50
70826;SHT31;58446;41.490;22.098;2022-08-25T07:39:07;24.55;72.09
70826;SHT31;58446;41.490;22.098;2022-08-25T07:41:38;24.63;71.35
70826;SHT31;58446;41.490;22.098;2022-08-25T07:44:05;24.63;71.91
70826;SHT31;58446;41.490;22.098;2022-08-25T07:46:31;24.76;72.63
70826;SHT31;58446;41.490;22.098;2022-08-25T07:48:58;24.90;71.06
70826;SHT31;58446;41.490;22.098;2022-08-25T07:51:24;24.81;70.74
70826;SHT31;58446;41.490;22.098;2022-08-25T07:53:50;24.78;71.49
70826;SHT31;58446;41.490;22.098;2022-08-25T07:56:16;24.87;71.43
70826;SHT31;58446;41.490;22.098;2022-08-25T07:58:43;24.97;70.86
70826;SHT31;58446;41.490;22.098;2022-08-25T08:01:14;24.92;70.69
70826;SHT31;58446;41.490;22.098;2022-08-25T08:03:40;25.19;72.81
70826;SHT31;58446;41.490;22.098;2022-08-25T08:06:08;25.34;70.37
70826;SHT31;58446;41.490;22.098;2022-08-25T08:08:39;25.48;69.97
70826;SHT31;58446;41.490;22.098;2022-08-25T08:11:23;25.75;69.21
70826;SHT31;58446;41.490;22.098;2022-08-25T08:13:51;26.14;72.00
70826;SHT31;58446;41.490;22.098;2022-08-25T08:16:18;26.30;67.52
70826;SHT31;58446;41.490;22.098;2022-08-25T08:18:45;26.44;65.86
70826;SHT31;58446;41.490;22.098;2022-08-25T08:21:16;26.65;65.91
70826;SHT31;58446;41.490;22.098;2022-08-25T08:23:42;26.89;66.90
70826;SHT31;58446;41.490;22.098;2022-08-25T08:26:08;27.08;65.34
70826;SHT31;58446;41.490;22.098;2022-08-25T08:28:34;27.30;67.23
70826;SHT31;58446;41.490;22.098;2022-08-25T08:31:00;27.37;63.66
70826;SHT31;58446;41.490;22.098;2022-08-25T08:33:26;27.47;65.04
70826;SHT31;58446;41.490;22.098;2022-08-25T08:36:00;27.39;63.09
70826;SHT31;58446;41.490;22.098;2022-08-25T08:38:27;27.08;63.80
70826;SHT31;58446;41.490;22.098;2022-08-25T08:46:50;26.91;67.86
70826;SHT31;58446;41.490;22.098;2022-08-25T08:49:34;26.98;66.39
70826;SHT31;58446;41.490;22.098;2022-08-25T08:52:03;27.19;65.93
70826;SHT31;58446;41.490;22.098;2022-08-25T08:54:36;27.22;64.25
70826;SHT31;58446;41.490;22.098;2022-08-25T08:57:13;27.40;64.30
70826;SHT31;58446;41.490;22.098;2022-08-25T08:59:49;27.81;65.12
70826;SHT31;58446;41.490;22.098;2022-08-25T09:02:47;27.97;63.16
70826;SHT31;58446;41.490;22.098;2022-08-25T09:05:12;28.11;63.58
70826;SHT31;58446;41.490;22.098;2022-08-25T09:08:00;28.18;62.56
70826;SHT31;58446;41.490;22.098;2022-08-25T09:10:48;27.78;62.25
70826;SHT31;58446;41.490;22.098;2022-08-25T09:13:18;27.77;64.08
70826;SHT31;58446;41.490;22.098;2022-08-25T09:27:02;27.51;65.06
70826;SHT31;58446;41.490;22.098;2022-08-25T09:32:18;27.49;65.10
70826;SHT31;58446;41.490;22.098;2022-08-25T09:34:45;27.57;64.27
70826;SHT31;58446;41.490;22.098;2022-08-25T09:37:12;27.76;65.51
70826;SHT31;58446;41.490;22.098;2022-08-25T09:39:37;28.04;64.13
70826;SHT31;58446;41.490;22.098;2022-08-25T09:42:03;28.28;65.08
70826;SHT31;58446;41.490;22.098;2022-08-25T09:44:43;28.52;63.63
70826;SHT31;58446;41.490;22.098;2022-08-25T09:47:22;28.68;64.46
70826;SHT31;58446;41.490;22.098;2022-08-25T09:50:01;28.72;64.29
70826;SHT31;58446;41.490;22.098;2022-08-25T09:58:12;28.28;62.03
70826;SHT31;58446;41.490;22.098;2022-08-25T10:00:33;28.02;62.43
70826;SHT31;58446;41.490;22.098;2022-08-25T10:03:22;27.68;63.78
70826;SHT31;58446;41.490;22.098;2022-08-25T10:06:11;27.64;65.35
70826;SHT31;58446;41.490;22.098;2022-08-25T10:11:10;27.64;65.00
70826;SHT31;58446;41.490;22.098;2022-08-25T10:13:46;27.84;68.19
70826;SHT31;58446;41.490;22.098;2022-08-25T10:16:24;27.86;65.93
70826;SHT31;58446;41.490;22.098;2022-08-25T10:19:05;27.90;65.76
70826;SHT31;58446;41.490;22.098;2022-08-25T10:21:32;28.07;64.66
70826;SHT31;58446;41.490;22.098;2022-08-25T10:23:58;28.31;64.98
70826;SHT31;58446;41.490;22.098;2022-08-25T10:26:47;28.52;63.86
70826;SHT31;58446;41.490;22.098;2022-08-25T10:32:20;28.58;62.95
70826;SHT31;58446;41.490;22.098;2022-08-25T10:34:49;28.11;62.47
70826;SHT31;58446;41.490;22.098;2022-08-25T10:40:20;28.66;63.65
70826;SHT31;58446;41.490;22.098;2022-08-25T10:45:24;28.37;61.81
70826;SHT31;58446;41.490;22.098;2022-08-25T10:56:42;29.06;59.63
70826;SHT31;58446;41.490;22.098;2022-08-25T10:59:46;28.87;61.01
70826;SHT31;58446;41.490;22.098;2022-08-25T11:05:15;29.23;61.71
70826;SHT31;58446;41.490;22.098;2022-08-25T11:07:45;29.08;60.79
70826;SHT31;58446;41.490;22.098;2022-08-25T11:10:16;29.16;60.18
70826;SHT31;58446;41.490;22.098;2022-08-25T11:12:56;29.28;59.77
70826;SHT31;58446;41.490;22.098;2022-08-25T11:15:49;29.41;59.94
70826;SHT31;58446;41.490;22.098;2022-08-25T11:18:16;29.08;60.16
70826;SHT31;58446;41.490;22.098;2022-08-25T11:23:46;29.18;59.54
70826;SHT31;58446;41.490;22.098;2022-08-25T11:26:19;29.39;59.63
70826;SHT31;58446;41.490;22.098;2022-08-25T11:28:56;29.50;60.66
70826;SHT31;58446;41.490;22.098;2022-08-25T11:31:24;29.51;59.48
70826;SHT31;58446;41.490;22.098;2022-08-25T11:33:57;29.38;58.21
70826;SHT31;58446;41.490;22.098;2022-08-25T11:42:23;29.55;58.48
70826;SHT31;58446;41.490;22.098;2022-08-25T11:51:04;29.68;57.40
70826;SHT31;58446;41.490;22.098;2022-08-25T11:53:33;29.78;58.84
70826;SHT31;58446;41.490;22.098;2022-08-25T11:56:35;29.95;57.42
70826;SHT31;58446;41.490;22.098;2022-08-25T11:59:02;30.04;56.50
70826;SHT31;58446;41.490;22.098;2022-08-25T12:04:36;30.20;56.54
70826;SHT31;58446;41.490;22.098;2022-08-25T12:16:29;30.36;56.52
70826;SHT31;58446;41.490;22.098;2022-08-25T12:18:13;30.22;56.15
70826;SHT31;58446;41.490;22.098;2022-08-25T12:23:31;29.98;56.46
70826;SHT31;58446;41.490;22.098;2022-08-25T12:26:03;29.93;56.21
70826;SHT31;58446;41.490;22.098;2022-08-25T12:29:24;30.01;56.54
70826;SHT31;58446;41.490;22.098;2022-08-25T12:31:59;30.23;55.68
70826;SHT31;58446;41.490;22.098;2022-08-25T12:37:20;30.52;53.59
70826;SHT31;58446;41.490;22.098;2022-08-25T12:42:31;30.47;55.66
70826;SHT31;58446;41.490;22.098;2022-08-25T12:45:30;30.39;55.07
70826;SHT31;58446;41.490;22.098;2022-08-25T12:51:16;29.99;55.09
70826;SHT31;58446;41.490;22.098;2022-08-25T12:54:16;30.10;55.58
70826;SHT31;58446;41.490;22.098;2022-08-25T12:56:54;30.20;55.71
70826;SHT31;58446;41.490;22.098;2022-08-25T12:59:23;30.27;54.62
70826;SHT31;58446;41.490;22.098;2022-08-25T13:05:04;30.43;54.36
70826;SHT31;58446;41.490;22.098;2022-08-25T13:13:33;30.08;53.42
70826;SHT31;58446;41.490;22.098;2022-08-25T13:16:08;29.85;54.37
70826;SHT31;58446;41.490;22.098;2022-08-25T13:18:40;29.79;55.02
70826;SHT31;58446;41.490;22.098;2022-08-25T13:23:37;29.88;55.04
70826;SHT31;58446;41.490;22.098;2022-08-25T13:26:04;29.81;55.15
70826;SHT31;58446;41.490;22.098;2022-08-25T13:28:35;29.81;55.30
70826;SHT31;58446;41.490;22.098;2022-08-25T13:31:16;29.78;55.21
70826;SHT31;58446;41.490;22.098;2022-08-25T13:33:58;29.74;55.38
70826;SHT31;58446;41.490;22.098;2022-08-25T13:36:26;29.77;55.52
70826;SHT31;58446;41.490;22.098;2022-08-25T13:39:12;29.72;55.62
70826;SHT31;58446;41.490;22.098;2022-08-25T13:41:44;29.71;55.78
70826;SHT31;58446;41.490;22.098;2022-08-25T13:44:12;29.69;55.65
70826;SHT31;58446;41.490;22.098;2022-08-25T13:46:38;29.64;55.90
70826;SHT31;58446;41.490;22.098;2022-08-25T13:49:06;29.61;55.43
70826;SHT31;58446;41.490;22.098;2022-08-25T13:51:37;29.61;54.57
70826;SHT31;58446;41.490;22.098;2022-08-25T13:54:20;29.54;54.58
70826;SHT31;58446;41.490;22.098;2022-08-25T13:56:48;29.50;55.89
70826;SHT31;58446;41.490;22.098;2022-08-25T13:59:40;29.43;56.39
70826;SHT31;58446;41.490;22.098;2022-08-25T14:02:10;29.38;56.19
70826;SHT31;58446;41.490;22.098;2022-08-25T14:07:25;29.20;57.37
70826;SHT31;58446;41.490;22.098;2022-08-25T14:10:03;29.13;58.34
70826;SHT31;58446;41.490;22.098;2022-08-25T14:12:43;29.07;58.40
70826;SHT31;58446;41.490;22.098;2022-08-25T14:18:03;28.52;58.28
70826;SHT31;58446;41.490;22.098;2022-08-25T14:20:32;28.35;58.45
70826;SHT31;58446;41.490;22.098;2022-08-25T14:23:07;28.31;58.44
70826;SHT31;58446;41.490;22.098;2022-08-25T14:25:33;28.14;58.78
70826;SHT31;58446;41.490;22.098;2022-08-25T14:28:04;28.04;58.65
70826;SHT31;58446;41.490;22.098;2022-08-25T14:30:34;27.93;58.93
70826;SHT31;58446;41.490;22.098;2022-08-25T14:33:01;27.78;59.60
70826;SHT31;58446;41.490;22.098;2022-08-25T14:35:28;27.71;59.89
70826;SHT31;58446;41.490;22.098;2022-08-25T14:37:54;27.67;60.14
70826;SHT31;58446;41.490;22.098;2022-08-25T14:40:20;27.60;60.20
70826;SHT31;58446;41.490;22.098;2022-08-25T14:42:47;27.57;60.39
70826;SHT31;58446;41.490;22.098;2022-08-25T14:45:16;27.54;60.37
70826;SHT31;58446;41.490;22.098;2022-08-25T14:47:43;27.53;60.41
70826;SHT31;58446;41.490;22.098;2022-08-25T14:50:11;27.56;60.27
70826;SHT31;58446;41.490;22.098;2022-08-25T14:52:37;27.53;60.55
70826;SHT31;58446;41.490;22.098;2022-08-25T14:55:03;27.54;60.80
70826;SHT31;58446;41.490;22.098;2022-08-25T14:57:29;27.54;60.94
70826;SHT31;58446;41.490;22.098;2022-08-25T14:59:54;27.49;61.14
70826;SHT31;58446;41.490;22.098;2022-08-25T15:02:23;27.47;61.50
70826;SHT31;58446;41.490;22.098;2022-08-25T15:04:55;27.47;61.54
70826;SHT31;58446;41.490;22.098;2022-08-25T15:07:22;27.46;61.68
70826;SHT31;58446;41.490;22.098;2022-08-25T15:10:07;27.43;61.76
70826;SHT31;58446;41.490;22.098;2022-08-25T15:12:34;27.40;61.83
70826;SHT31;58446;41.490;22.098;2022-08-25T15:15:00;27.46;61.80
70826;SHT31;58446;41.490;22.098;2022-08-25T15:17:27;27.46;61.50
70826;SHT31;58446;41.490;22.098;2022-08-25T15:19:53;27.45;61.33
70826;SHT31;58446;41.490;22.098;2022-08-25T15:22:19;27.46;61.13
70826;SHT31;58446;41.490;22.098;2022-08-25T15:24:44;27.42;61.08
70826;SHT31;58446;41.490;22.098;2022-08-25T15:27:11;27.35;61.30
70826;SHT31;58446;41.490;22.098;2022-08-25T15:29:38;27.36;61.26
70826;SHT31;58446;41.490;22.098;2022-08-25T15:32:06;27.39;61.27
70826;SHT31;58446;41.490;22.098;2022-08-25T15:34:33;27.39;61.35
70826;SHT31;58446;41.490;22.098;2022-08-25T15:37:08;27.45;61.27
70826;SHT31;58446;41.490;22.098;2022-08-25T15:39:35;27.47;61.14
70826;SHT31;58446;41.490;22.098;2022-08-25T15:42:01;27.42;61.25
70826;SHT31;58446;41.490;22.098;2022-08-25T15:44:30;27.42;61.21
70826;SHT31;58446;41.490;22.098;2022-08-25T15:46:57;27.40;61.07
70826;SHT31;58446;41.490;22.098;2022-08-25T15:49:23;27.45;61.04
70826;SHT31;58446;41.490;22.098;2022-08-25T15:51:51;27.47;60.92
70826;SHT31;58446;41.490;22.098;2022-08-25T15:54:19;27.53;60.61
70826;SHT31;58446;41.490;22.098;2022-08-25T15:56:45;27.61;60.36
70826;SHT31;58446;41.490;22.098;2022-08-25T15:59:12;27.67;60.18
70826;SHT31;58446;41.490;22.098;2022-08-25T16:01:39;27.66;60.09
70826;SHT31;58446;41.490;22.098;2022-08-25T16:04:05;27.66;59.95
70826;SHT31;58446;41.490;22.098;2022-08-25T16:06:31;27.71;59.82
70826;SHT31;58446;41.490;22.098;2022-08-25T16:08:57;27.73;60.07
70826;SHT31;58446;41.490;22.098;2022-08-25T16:11:26;27.74;59.86
70826;SHT31;58446;41.490;22.098;2022-08-25T16:13:53;27.83;59.63
70826;SHT31;58446;41.490;22.098;2022-08-25T16:16:21;27.84;59.62
70826;SHT31;58446;41.490;22.098;2022-08-25T16:18:47;27.81;59.60
70826;SHT31;58446;41.490;22.098;2022-08-25T16:21:19;27.88;59.92
70826;SHT31;58446;41.490;22.098;2022-08-25T16:23:48;27.88;59.70
70826;SHT31;58446;41.490;22.098;2022-08-25T16:26:14;27.87;59.60
70826;SHT31;58446;41.490;22.098;2022-08-25T16:28:42;27.84;59.83
70826;SHT31;58446;41.490;22.098;2022-08-25T16:31:11;27.87;59.69
70826;SHT31;58446;41.490;22.098;2022-08-25T16:33:37;27.93;57.95
70826;SHT31;58446;41.490;22.098;2022-08-25T16:38:34;27.94;58.66
70826;SHT31;58446;41.490;22.098;2022-08-25T16:41:04;27.93;58.89
70826;SHT31;58446;41.490;22.098;2022-08-25T16:43:30;27.87;58.31
70826;SHT31;58446;41.490;22.098;2022-08-25T16:46:01;27.84;57.77
70826;SHT31;58446;41.490;22.098;2022-08-25T16:48:27;27.87;57.20
70826;SHT31;58446;41.490;22.098;2022-08-25T16:50:53;27.87;58.01
70826;SHT31;58446;41.490;22.098;2022-08-25T16:53:19;27.84;58.16
70826;SHT31;58446;41.490;22.098;2022-08-25T16:56:04;27.87;58.16
70826;SHT31;58446;41.490;22.098;2022-08-25T16:58:30;27.87;58.62
70826;SHT31;58446;41.490;22.098;2022-08-25T17:01:08;27.76;58.68
70826;SHT31;58446;41.490;22.098;2022-08-25T17:03:36;27.68;58.92
70826;SHT31;58446;41.490;22.098;2022-08-25T17:06:04;27.67;59.74
70826;SHT31;58446;41.490;22.098;2022-08-25T17:08:29;27.57;60.35
70826;SHT31;58446;41.490;22.098;2022-08-25T17:11:04;27.64;60.59
70826;SHT31;58446;41.490;22.098;2022-08-25T17:13:30;27.60;61.43
70826;SHT31;58446;41.490;22.098;2022-08-25T17:15:56;27.54;62.09
70826;SHT31;58446;41.490;22.098;2022-08-25T17:18:23;27.39;63.17
70826;SHT31;58446;41.490;22.098;2022-08-25T17:21:04;27.22;63.36
70826;SHT31;58446;41.490;22.098;2022-08-25T17:23:30;27.20;63.80